Terminal Aerodrome Forecast
Issued by NWS

Current Version | Previous Version | Text Only | Print | Product List | Glossary On
Versions: 1 2 3 4 5 6 7 8 9 10 11 12 13 14 15 16 17 18
000
FTUS43 KICT 030524
TAFRSL
TAF
KRSL 030524Z 0306/0406 16012KT P6SM FEW250
     FM031100 17012KT P6SM SCT025
     FM031600 17017G25KT P6SM SCT035
     FM040100 16013KT P6SM BKN035=

USA.gov is the U.S. government's official web portal to all federal, state and local government web resources and services.